.
WxDataArchive / Data Records for 2008-02-29
2008-02-28 February 2008 2008-03-01

Data Records for Friday, 29 February 2008

Time	Temp	Chill	HIndex	Humid	Dewpt	 Wind 	HiWind	WindDir	Rain 	Barom 
-----	----	-----	------	-----	-----	------	------	-------	-----	----- 
00:00	18.6	18.6	18.6	69	10.2	1	4	112	0.00	30.212 
00:05	18.6	18.6	18.6	69	10.2	2	4	112	0.00	30.208 
00:10	18.8	18.8	18.8	69	10.3	1	3	112	0.00	30.207 
00:15	18.8	18.8	18.8	69	10.3	1	4	112	0.00	30.206 
00:20	18.8	18.8	18.8	69	10.3	1	3	112	0.00	30.206 
00:25	18.8	18.8	18.8	69	10.3	2	4	90	0.00	30.206 
00:30	18.9	18.9	18.9	69	10.4	1	4	112	0.00	30.206 
00:35	18.9	18.9	18.9	70	10.8	1	2	112	0.00	30.209 
00:40	18.9	18.9	18.9	69	10.4	1	4	112	0.00	30.211 
00:45	18.9	18.9	18.9	70	10.8	1	2	112	0.00	30.208 
00:50	19.1	19.1	19.1	70	11.0	1	2	112	0.00	30.209 
00:55	19.1	19.1	19.1	70	11.0	0	2	112	0.00	30.210 
01:00	19.1	19.1	19.1	70	11.0	0	2	112	0.00	30.206 
01:05	19.1	19.1	19.1	70	11.0	0	1	112	0.00	30.206 
01:10	19.1	19.1	19.1	71	11.3	0	1	112	0.00	30.206 
01:15	19.1	19.1	19.1	71	11.3	0	1	112	0.00	30.206 
01:20	19.1	19.1	19.1	71	11.3	0	1	112	0.00	30.207 
01:25	19.1	19.1	19.1	71	11.3	0	2	112	0.00	30.206 
01:30	19.1	19.1	19.1	72	11.6	0	2	112	0.00	30.203 
01:35	19.1	19.1	19.1	72	11.6	0	3	112	0.00	30.200 
01:40	19.2	19.2	19.2	72	11.7	0	0	---	0.00	30.199 
01:45	19.2	19.2	19.2	72	11.7	0	1	112	0.00	30.196 
01:50	19.2	19.2	19.2	73	12.0	0	2	112	0.00	30.193 
01:55	19.4	19.4	19.4	72	11.9	0	2	112	0.00	30.189 
02:00	19.5	19.5	19.5	72	12.0	0	2	112	0.00	30.187 
02:05	19.5	19.5	19.5	73	12.3	0	2	112	0.00	30.185 
02:10	19.5	19.5	19.5	72	12.0	0	2	112	0.00	30.183 
02:15	19.7	19.7	19.7	73	12.5	0	2	112	0.00	30.183 
02:20	19.9	19.9	19.9	73	12.7	0	2	112	0.00	30.183 
02:25	19.9	19.9	19.9	73	12.7	1	2	112	0.00	30.179 
02:30	20.0	20.0	20.0	73	12.8	0	2	112	0.00	30.183 
02:35	20.0	20.0	20.0	74	13.1	0	1	112	0.00	30.187 
02:40	20.0	20.0	20.0	75	13.4	0	0	---	0.00	30.188 
02:45	20.2	20.2	20.2	76	13.9	0	2	112	0.00	30.188 
02:50	20.0	20.0	20.0	77	14.0	0	1	112	0.00	30.187 
02:55	20.0	20.0	20.0	78	14.3	0	1	112	0.00	30.182 
03:00	20.0	20.0	20.0	80	14.8	0	1	112	0.00	30.174 
03:05	20.0	20.0	20.0	82	15.4	1	2	112	0.00	30.171 
03:10	19.9	19.9	19.9	83	15.6	1	2	112	0.00	30.160 
03:15	19.9	19.9	19.9	84	15.9	1	2	112	0.00	30.157 
03:20	19.9	19.9	19.9	84	15.9	1	2	112	0.00	30.153 
03:25	20.0	20.0	20.0	85	16.2	1	2	112	0.00	30.146 
03:30	20.0	20.0	20.0	86	16.5	1	3	112	0.00	30.143 
03:35	20.0	20.0	20.0	86	16.5	1	2	112	0.00	30.140 
03:40	20.2	20.2	20.2	87	17.0	1	2	112	0.00	30.135 
03:45	20.2	20.2	20.2	88	17.2	1	3	112	0.00	30.130 
03:50	20.3	20.3	20.3	88	17.3	1	3	112	0.00	30.125 
03:55	20.5	20.5	20.5	88	17.5	1	2	112	0.00	30.124 
04:00	20.5	20.5	20.5	88	17.5	1	3	112	0.00	30.119 
04:05	20.6	20.6	20.6	88	17.6	1	4	112	0.00	30.114 
04:10	20.8	20.8	20.8	89	18.1	1	4	112	0.00	30.111 
04:15	21.0	21.0	21.0	89	18.3	2	4	112	0.00	30.104 
04:20	21.3	21.3	21.3	89	18.6	2	4	112	0.00	30.097 
04:25	21.6	21.6	21.6	90	19.1	2	4	90	0.00	30.094 
04:30	21.9	21.9	21.9	90	19.4	2	3	112	0.00	30.091 
04:35	22.2	22.2	22.2	90	19.7	2	3	112	0.00	30.085 
04:40	22.5	22.5	22.5	91	20.3	2	5	112	0.00	30.082 
04:45	22.7	22.7	22.7	91	20.5	2	4	112	0.00	30.079 
04:50	22.9	22.9	22.9	91	20.7	2	5	112	0.00	30.078 
04:55	23.0	23.0	23.0	91	20.8	1	3	112	0.00	30.077 
05:00	23.2	23.2	23.2	91	21.0	1	4	112	0.00	30.075 
05:05	23.3	23.3	23.3	91	21.1	1	3	112	0.00	30.074 
05:10	23.5	23.5	23.5	91	21.3	1	6	112	0.00	30.069 
05:15	23.6	23.6	23.6	91	21.4	1	4	135	0.00	30.069 
05:20	23.9	23.9	23.9	91	21.7	2	4	112	0.00	30.067 
05:25	24.1	24.1	24.1	91	21.9	2	5	112	0.00	30.063 
05:30	24.2	24.2	24.2	91	22.0	3	6	112	0.00	30.060 
05:35	24.4	24.4	24.4	91	22.2	3	5	112	0.00	30.055 
05:40	24.5	24.5	24.5	91	22.3	2	4	112	0.00	30.047 
05:45	24.7	24.7	24.7	91	22.5	3	7	112	0.00	30.045 
05:50	24.8	24.8	24.8	91	22.6	2	5	112	0.00	30.040 
05:55	24.8	24.8	24.8	91	22.6	3	5	112	0.00	30.033 
06:00	25.0	25.0	25.0	92	23.0	2	5	112	0.00	30.033 
06:05	25.1	25.1	25.1	92	23.1	3	9	112	0.00	30.033 
06:10	25.3	25.3	25.3	92	23.3	3	8	112	0.00	30.032 
06:15	25.4	25.4	25.4	92	23.4	2	4	112	0.00	30.032 
06:20	25.4	25.4	25.4	92	23.4	2	6	112	0.00	30.032 
06:25	25.6	25.6	25.6	92	23.6	2	6	112	0.00	30.028 
06:30	25.7	25.7	25.7	92	23.7	2	6	112	0.00	30.024 
06:35	25.8	25.8	25.8	92	23.8	1	4	90	0.00	30.022 
06:40	26.0	26.0	26.0	92	24.0	1	3	112	0.00	30.021 
06:45	26.1	26.1	26.1	92	24.1	1	5	135	0.00	30.020 
06:50	26.3	26.3	26.3	92	24.3	1	3	112	0.00	30.015 
06:55	26.4	26.4	26.4	92	24.4	2	4	112	0.00	30.011 
07:00	26.7	26.7	26.7	92	24.7	2	5	112	0.00	30.001 
07:05	26.9	26.9	26.9	92	24.9	1	6	90	0.00	30.003 
07:10	27.0	27.0	27.0	92	25.0	1	4	112	0.00	30.007 
07:15	27.2	27.2	27.2	92	25.2	1	6	112	0.00	30.011 
07:20	27.2	27.2	27.2	92	25.2	1	4	112	0.00	30.008 
07:25	27.3	27.3	27.3	92	25.3	2	4	112	0.00	30.002 
07:30	27.5	27.5	27.5	92	25.5	1	5	135	0.00	30.001 
07:35	27.6	27.6	27.6	91	25.3	1	4	135	0.00	29.999 
07:40	27.8	27.8	27.8	91	25.5	1	5	135	0.00	30.001 
07:45	27.8	27.8	27.8	91	25.5	1	2	90	0.00	29.998 
07:50	27.9	27.9	27.9	91	25.6	1	3	90	0.00	29.998 
07:55	27.9	27.9	27.9	91	25.6	1	4	90	0.00	29.997 
08:00	28.1	28.1	28.1	91	25.8	0	2	135	0.00	29.996 
08:05	28.2	28.2	28.2	91	25.9	1	4	135	0.00	29.995 
08:10	28.2	28.2	28.2	91	25.9	1	3	112	0.00	29.992 
08:15	28.4	28.4	28.4	91	26.1	1	3	112	0.00	29.990 
08:20	28.4	28.4	28.4	91	26.1	1	4	112	0.00	29.987 
08:25	28.5	28.5	28.5	91	26.2	1	3	112	0.00	29.984 
08:30	28.8	28.8	28.8	91	26.5	1	3	135	0.00	29.984 
08:35	29.0	29.0	29.0	91	26.7	1	3	135	0.00	29.983 
08:40	29.1	29.1	29.1	90	26.5	1	3	112	0.00	29.983 
08:45	29.4	29.4	29.4	90	26.8	0	2	135	0.00	29.983 
08:50	29.5	29.5	29.5	89	26.7	1	3	90	0.00	29.979 
08:55	29.7	29.7	29.7	89	26.9	1	4	90	0.00	29.975 
09:00	30.0	30.0	30.0	89	27.2	1	3	90	0.00	29.978 
09:05	30.1	30.1	30.1	88	27.0	1	3	112	0.00	29.978 
09:10	30.3	30.3	30.3	88	27.2	0	2	112	0.00	29.975 
09:15	30.6	30.6	30.6	88	27.5	1	3	112	0.00	29.968 
09:20	30.9	30.9	30.9	88	27.8	1	3	112	0.00	29.965 
09:25	31.2	31.2	31.2	87	27.8	1	3	112	0.00	29.966 
09:30	31.3	31.3	31.3	86	27.6	1	6	135	0.00	29.965 
09:35	31.3	31.3	31.3	86	27.6	1	3	90	0.00	29.962 
09:40	31.6	31.6	31.6	86	27.9	1	3	135	0.00	29.959 
09:45	31.9	31.9	31.9	86	28.2	1	3	135	0.00	29.955 
09:50	32.2	32.2	32.2	85	28.2	1	2	112	0.00	29.954 
09:55	32.5	32.5	32.5	85	28.5	1	4	112	0.00	29.953 
10:00	32.9	32.9	32.9	84	28.6	1	4	112	0.00	29.951 
10:05	33.5	33.5	33.5	84	29.2	1	3	112	0.00	29.948 
10:10	33.8	33.8	33.8	82	28.9	1	3	112	0.00	29.944 
10:15	34.3	34.3	34.3	82	29.4	0	1	112	0.00	29.944 
10:20	34.6	34.6	34.6	81	29.4	1	2	112	0.01	29.943 
10:25	34.6	34.6	34.6	81	29.4	0	4	112	0.00	29.938 
10:30	34.7	34.7	34.7	81	29.5	1	3	112	0.00	29.933 
10:35	34.9	34.9	34.9	80	29.4	0	2	112	0.00	29.932 
10:40	34.9	34.9	34.9	81	29.7	1	3	112	0.00	29.929 
10:45	35.2	35.2	35.2	81	30.0	0	2	135	0.00	29.929 
10:50	35.2	35.2	35.2	81	30.0	1	3	135	0.00	29.927 
10:55	35.2	35.2	35.2	81	30.0	0	1	112	0.00	29.927 
11:00	35.2	35.2	35.2	83	30.6	0	1	112	0.00	29.926 
11:05	35.2	35.2	35.2	84	30.9	0	3	248	0.00	29.924 
11:10	35.3	35.3	35.3	85	31.2	0	2	248	0.00	29.920 
11:15	35.5	35.5	35.5	86	31.7	0	1	248	0.00	29.915 
11:20	35.6	35.6	35.6	86	31.8	0	2	248	0.00	29.915 
11:25	36.0	36.0	36.0	87	32.5	0	1	248	0.00	29.912 
11:30	36.5	36.5	36.5	86	32.7	0	2	248	0.00	29.909 
11:35	37.0	37.0	37.0	86	33.2	0	1	248	0.00	29.908 
11:40	37.5	37.5	37.5	85	33.4	0	2	248	0.00	29.906 
11:45	37.5	37.5	37.5	81	32.2	2	9	68	0.00	29.898 
11:50	37.6	37.6	37.6	81	32.3	2	5	248	0.00	29.900 
11:55	37.9	37.9	37.9	81	32.6	1	5	248	0.00	29.895 
12:00	38.2	38.2	38.2	80	32.6	2	6	248	0.00	29.893 
12:05	38.5	38.5	38.5	78	32.2	2	5	248	0.00	29.892 
12:10	38.9	38.9	38.9	76	32.0	3	8	248	0.00	29.888 
12:15	39.1	39.1	39.1	75	31.9	3	7	248	0.01	29.889 
12:20	39.3	39.3	39.3	74	31.7	2	5	248	0.02	29.888 
12:25	39.3	39.3	39.3	74	31.7	1	4	225	0.00	29.887 
12:30	39.5	39.5	39.5	74	31.9	1	4	225	0.01	29.886 
12:35	39.6	39.6	39.6	73	31.7	2	6	225	0.00	29.883 
12:40	39.8	39.8	39.8	71	31.2	3	10	248	0.01	29.880 
12:45	39.9	39.9	39.9	71	31.3	2	6	248	0.00	29.875 
12:50	39.8	39.8	39.8	72	31.5	3	11	248	0.01	29.874 
12:55	39.6	39.6	39.6	73	31.7	2	6	248	0.01	29.877 
13:00	39.5	39.5	39.5	73	31.6	2	6	248	0.00	29.876 
13:05	39.3	39.3	39.3	73	31.4	3	9	248	0.01	29.874 
13:10	39.1	36.3	39.1	74	31.5	4	9	248	0.00	29.877 
13:15	38.6	38.6	38.6	77	32.0	3	7	248	0.01	29.873 
13:20	38.0	35.0	38.0	80	32.4	4	11	270	0.01	29.874 
13:25	37.6	37.6	37.6	82	32.6	3	7	248	0.01	29.874 
13:30	37.6	37.6	37.6	84	33.2	3	9	248	0.00	29.869 
13:35	37.3	37.3	37.3	84	32.9	3	7	248	0.01	29.873 
13:40	37.2	37.2	37.2	85	33.1	2	6	225	0.00	29.870 
13:45	37.2	37.2	37.2	85	33.1	3	8	248	0.00	29.868 
13:50	37.2	37.2	37.2	85	33.1	3	6	270	0.01	29.865 
13:55	37.3	37.3	37.3	85	33.2	3	7	248	0.00	29.866 
14:00	37.5	37.5	37.5	84	33.1	3	9	248	0.00	29.860 
14:05	37.6	37.6	37.6	84	33.2	3	7	248	0.01	29.860 
14:10	37.6	34.5	37.6	83	32.9	4	9	248	0.00	29.858 
14:15	37.9	34.9	37.9	82	32.9	4	7	248	0.00	29.857 
14:20	38.0	35.0	38.0	81	32.7	4	9	248	0.01	29.856 
14:25	38.2	38.2	38.2	81	32.9	3	9	248	0.00	29.858 
14:30	38.3	38.3	38.3	81	33.0	3	10	248	0.01	29.859 
14:35	38.3	38.3	38.3	80	32.7	3	7	270	0.00	29.858 
14:40	38.3	38.3	38.3	79	32.4	3	8	270	0.00	29.858 
14:45	38.3	34.5	38.3	78	32.1	5	13	270	0.01	29.857 
14:50	38.2	34.4	38.2	78	32.0	5	12	270	0.00	29.857 
14:55	38.0	35.0	38.0	79	32.1	4	10	270	0.00	29.859 
15:00	38.0	35.0	38.0	79	32.1	4	12	248	0.01	29.860 
15:05	37.9	37.9	37.9	79	32.0	3	9	248	0.00	29.861 
15:10	37.9	37.9	37.9	79	32.0	2	4	248	0.00	29.861 
15:15	37.8	34.8	37.8	79	31.9	4	9	270	0.00	29.863 
15:20	37.6	37.6	37.6	79	31.7	3	6	270	0.01	29.863 
15:25	37.5	34.4	37.5	79	31.6	4	10	270	0.00	29.861 
15:30	37.3	32.5	37.3	79	31.4	6	11	270	0.00	29.862 
15:35	37.3	37.3	37.3	79	31.4	3	7	248	0.00	29.864 
15:40	37.3	37.3	37.3	80	31.7	3	10	270	0.00	29.865 
15:45	37.3	37.3	37.3	80	31.7	3	9	248	0.00	29.864 
15:50	37.2	34.1	37.2	80	31.6	4	11	270	0.00	29.865 
15:55	37.0	32.9	37.0	80	31.4	5	10	270	0.00	29.867 
16:00	37.0	33.9	37.0	81	31.7	4	9	270	0.01	29.863 
16:05	37.0	32.9	37.0	81	31.7	5	14	270	0.00	29.862 
16:10	37.2	34.1	37.2	81	31.9	4	9	270	0.00	29.859 
16:15	37.2	34.1	37.2	80	31.6	4	10	248	0.00	29.860 
16:20	37.2	34.1	37.2	80	31.6	4	12	270	0.00	29.866 
16:25	36.9	33.7	36.9	80	31.3	4	14	248	0.00	29.868 
16:30	36.6	32.5	36.6	81	31.3	5	13	270	0.00	29.868 
16:35	36.5	32.4	36.5	81	31.2	5	16	270	0.00	29.866 
16:40	36.3	32.1	36.3	82	31.3	5	13	270	0.00	29.871 
16:45	36.3	33.0	36.3	82	31.3	4	9	248	0.00	29.873 
16:50	36.3	32.1	36.3	83	31.6	5	12	270	0.00	29.874 
16:55	36.3	33.0	36.3	83	31.6	4	10	270	0.01	29.876 
17:00	36.2	32.0	36.2	83	31.5	5	10	270	0.00	29.880 
17:05	36.0	36.0	36.0	83	31.3	3	6	270	0.00	29.881 
17:10	36.0	32.7	36.0	83	31.3	4	11	270	0.00	29.880 
17:15	35.9	32.6	35.9	83	31.2	4	13	270	0.00	29.888 
17:20	35.9	32.6	35.9	83	31.2	4	11	248	0.00	29.888 
17:25	36.0	31.0	36.0	82	31.0	6	15	270	0.00	29.890 
17:30	35.9	32.6	35.9	82	31.0	4	11	270	0.00	29.892 
17:35	35.9	35.9	35.9	82	31.0	3	10	270	0.00	29.892 
17:40	35.9	32.6	35.9	81	30.6	4	15	270	0.00	29.894 
17:45	35.9	31.7	35.9	81	30.6	5	13	270	0.00	29.894 
17:50	35.9	31.7	35.9	81	30.6	5	13	270	0.00	29.894 
17:55	35.9	31.7	35.9	79	30.0	5	12	270	0.00	29.895 
18:00	35.9	32.6	35.9	79	30.0	4	9	270	0.00	29.897 
18:05	35.9	32.6	35.9	79	30.0	4	11	270	0.00	29.899 
18:10	35.8	32.5	35.8	80	30.2	4	15	270	0.00	29.903 
18:15	35.6	32.2	35.6	80	30.1	4	10	270	0.00	29.901 
18:20	35.6	31.3	35.6	81	30.4	5	10	270	0.00	29.903 
18:25	35.5	32.1	35.5	81	30.3	4	10	248	0.00	29.904 
18:30	35.5	32.1	35.5	80	30.0	4	12	248	0.00	29.904 
18:35	35.5	32.1	35.5	80	30.0	4	11	248	0.00	29.906 
18:40	35.3	30.2	35.3	78	29.1	6	13	270	0.00	29.907 
18:45	35.3	30.2	35.3	75	28.2	6	16	270	0.00	29.911 
18:50	35.3	35.3	35.3	75	28.2	3	7	270	0.00	29.915 
18:55	35.3	31.0	35.3	74	27.9	5	14	270	0.00	29.916 
19:00	35.2	35.2	35.2	74	27.8	3	10	248	0.00	29.918 
19:05	35.2	31.8	35.2	74	27.8	4	11	270	0.00	29.919 
19:10	35.2	31.8	35.2	75	28.1	4	10	248	0.00	29.920 
19:15	35.0	31.5	35.0	75	27.9	4	7	270	0.00	29.921 
19:20	35.0	31.5	35.0	75	27.9	4	9	270	0.00	29.928 
19:25	34.9	31.4	34.9	75	27.8	4	10	270	0.00	29.931 
19:30	34.9	31.4	34.9	75	27.8	4	11	270	0.00	29.935 
19:35	34.9	30.5	34.9	76	28.1	5	12	270	0.00	29.937 
19:40	34.7	31.2	34.7	76	27.9	4	12	270	0.00	29.941 
19:45	34.7	31.2	34.7	76	27.9	4	10	270	0.00	29.949 
19:50	34.7	31.2	34.7	76	27.9	4	12	270	0.00	29.948 
19:55	34.7	31.2	34.7	75	27.6	4	11	270	0.00	29.950 
20:00	34.7	30.2	34.7	75	27.6	5	11	270	0.00	29.952 
20:05	34.6	34.6	34.6	76	27.8	3	9	248	0.00	29.951 
20:10	34.4	30.8	34.4	77	27.9	4	10	248	0.00	29.950 
20:15	34.4	29.9	34.4	78	28.3	5	13	270	0.00	29.952 
20:20	34.3	30.7	34.3	78	28.2	4	11	270	0.00	29.953 
20:25	34.3	34.3	34.3	78	28.2	3	9	270	0.00	29.955 
20:30	34.1	29.5	34.1	78	28.0	5	18	270	0.00	29.954 
20:35	34.1	29.5	34.1	77	27.7	5	12	270	0.00	29.955 
20:40	34.1	30.5	34.1	77	27.7	4	7	270	0.00	29.954 
20:45	34.0	29.4	34.0	77	27.6	5	12	270	0.00	29.956 
20:50	34.0	28.6	34.0	77	27.6	6	15	270	0.00	29.955 
20:55	33.8	30.2	33.8	78	27.7	4	12	270	0.00	29.955 
21:00	33.8	30.2	33.8	78	27.7	4	9	270	0.00	29.959 
21:05	33.8	29.2	33.8	77	27.4	5	10	248	0.00	29.961 
21:10	33.8	30.2	33.8	77	27.4	4	11	248	0.00	29.963 
21:15	34.0	30.4	34.0	76	27.2	4	12	270	0.00	29.963 
21:20	34.0	34.0	34.0	75	26.9	3	7	270	0.00	29.963 
21:25	34.0	34.0	34.0	75	26.9	3	6	270	0.00	29.960 
21:30	34.0	30.4	34.0	75	26.9	4	13	270	0.00	29.961 
21:35	34.0	34.0	34.0	74	26.6	3	10	270	0.00	29.961 
21:40	34.0	34.0	34.0	73	26.3	3	7	248	0.00	29.961 
21:45	34.1	34.1	34.1	73	26.4	3	10	248	0.00	29.961 
21:50	34.1	34.1	34.1	72	26.0	3	8	270	0.00	29.963 
21:55	34.1	34.1	34.1	71	25.7	3	8	270	0.00	29.963 
22:00	34.1	34.1	34.1	70	25.4	3	7	270	0.00	29.964 
22:05	34.1	34.1	34.1	70	25.4	3	7	248	0.00	29.962 
22:10	34.1	30.5	34.1	69	25.0	4	11	270	0.00	29.962 
22:15	34.1	34.1	34.1	69	25.0	3	5	270	0.00	29.963 
22:20	34.1	30.5	34.1	69	25.0	4	14	270	0.00	29.964 
22:25	34.1	29.5	34.1	67	24.3	5	11	270	0.00	29.963 
22:30	34.1	30.5	34.1	66	23.9	4	12	270	0.00	29.963 
22:35	34.1	34.1	34.1	66	23.9	3	6	270	0.00	29.966 
22:40	34.1	30.5	34.1	66	23.9	4	10	270	0.00	29.968 
22:45	34.1	34.1	34.1	66	23.9	3	9	270	0.00	29.972 
22:50	34.1	30.5	34.1	66	23.9	4	7	270	0.00	29.974 
22:55	34.0	34.0	34.0	66	23.9	3	9	270	0.00	29.975 
23:00	33.8	33.8	33.8	66	23.7	3	6	270	0.00	29.975 
23:05	33.7	33.7	33.7	67	23.9	3	9	270	0.00	29.973 
23:10	33.7	33.7	33.7	67	23.9	3	9	270	0.00	29.971 
23:15	33.5	33.5	33.5	66	23.4	3	11	270	0.00	29.971 
23:20	33.4	33.4	33.4	67	23.6	2	9	248	0.00	29.976 
23:25	33.2	33.2	33.2	68	23.8	3	10	270	0.00	29.976 
23:30	33.2	33.2	33.2	68	23.8	3	7	270	0.00	29.977 
23:35	33.1	33.1	33.1	69	24.1	2	4	270	0.00	29.977 
23:40	32.9	32.9	32.9	68	23.5	3	9	270	0.00	29.979 
23:45	32.8	32.8	32.8	68	23.4	2	5	270	0.00	29.979 
23:50	32.5	32.5	32.5	67	22.8	3	7	270	0.00	29.979 
23:55	32.4	32.4	32.4	67	22.7	3	6	270	0.00	29.980 

CoCoRaHS
IN-AL-39
A2 Web Hosting
Creative Commons License
GoDaddy
Look for:

loaded 2017-12-13 02:47:55 • last modified 2010-11-18 10:43:29
Privacy PolicyDisclaimer
• wx.awcolley.com is powered by PmWiki v.2002016 •
• all content (unless otherwise noted) © 2017 A W Colley